sensor_id;sensor_type;location;lat;lon;timestamp;temperature;humidity
39103;DHT22;24847;48.218;16.414;2022-08-03T00:04:47;22.40;99.90
39103;DHT22;24847;48.218;16.414;2022-08-03T00:09:51;22.40;99.90
39103;DHT22;24847;48.218;16.414;2022-08-03T00:14:53;22.10;99.90
39103;DHT22;24847;48.218;16.414;2022-08-03T00:19:55;22.00;99.90
39103;DHT22;24847;48.218;16.414;2022-08-03T00:24:59;21.90;99.90
39103;DHT22;24847;48.218;16.414;2022-08-03T00:30:01;22.10;99.90
39103;DHT22;24847;48.218;16.414;2022-08-03T00:35:05;22.30;99.70
39103;DHT22;24847;48.218;16.414;2022-08-03T00:40:11;21.80;99.90
39103;DHT22;24847;48.218;16.414;2022-08-03T00:45:14;21.80;99.90
39103;DHT22;24847;48.218;16.414;2022-08-03T00:50:17;21.70;99.90
39103;DHT22;24847;48.218;16.414;2022-08-03T00:55:24;21.70;99.90
39103;DHT22;24847;48.218;16.414;2022-08-03T01:00:27;21.60;99.90
39103;DHT22;24847;48.218;16.414;2022-08-03T01:05:29;21.80;99.90
39103;DHT22;24847;48.218;16.414;2022-08-03T01:10:40;21.50;99.90
39103;DHT22;24847;48.218;16.414;2022-08-03T01:15:53;21.40;99.90
39103;DHT22;24847;48.218;16.414;2022-08-03T01:21:01;21.50;99.90
39103;DHT22;24847;48.218;16.414;2022-08-03T01:26:31;21.30;99.90
39103;DHT22;24847;48.218;16.414;2022-08-03T01:31:52;21.40;99.90
39103;DHT22;24847;48.218;16.414;2022-08-03T01:36:58;21.20;99.90
39103;DHT22;24847;48.218;16.414;2022-08-03T01:42:05;21.10;99.90
39103;DHT22;24847;48.218;16.414;2022-08-03T01:47:10;21.10;99.90
39103;DHT22;24847;48.218;16.414;2022-08-03T01:52:16;21.00;99.90
39103;DHT22;24847;48.218;16.414;2022-08-03T01:57:20;21.00;99.90
39103;DHT22;24847;48.218;16.414;2022-08-03T02:02:25;20.70;99.90
39103;DHT22;24847;48.218;16.414;2022-08-03T02:07:29;20.60;99.90
39103;DHT22;24847;48.218;16.414;2022-08-03T02:12:33;20.60;99.90
39103;DHT22;24847;48.218;16.414;2022-08-03T02:17:40;20.60;99.90
39103;DHT22;24847;48.218;16.414;2022-08-03T02:22:43;20.50;99.90
39103;DHT22;24847;48.218;16.414;2022-08-03T02:27:50;20.60;99.90
39103;DHT22;24847;48.218;16.414;2022-08-03T02:32:55;20.50;99.90
39103;DHT22;24847;48.218;16.414;2022-08-03T02:38:02;20.40;99.90
39103;DHT22;24847;48.218;16.414;2022-08-03T02:43:09;20.60;99.90
39103;DHT22;24847;48.218;16.414;2022-08-03T02:48:19;20.60;99.90
39103;DHT22;24847;48.218;16.414;2022-08-03T02:53:23;20.30;99.90
39103;DHT22;24847;48.218;16.414;2022-08-03T02:58:26;20.20;99.90
39103;DHT22;24847;48.218;16.414;2022-08-03T03:03:32;20.30;99.90
39103;DHT22;24847;48.218;16.414;2022-08-03T03:08:36;20.20;99.90
39103;DHT22;24847;48.218;16.414;2022-08-03T03:13:41;20.10;99.90
39103;DHT22;24847;48.218;16.414;2022-08-03T03:18:46;20.00;99.90
39103;DHT22;24847;48.218;16.414;2022-08-03T03:23:51;20.20;99.90
39103;DHT22;24847;48.218;16.414;2022-08-03T03:28:53;20.60;99.90
39103;DHT22;24847;48.218;16.414;2022-08-03T03:33:58;20.70;99.90
39103;DHT22;24847;48.218;16.414;2022-08-03T03:39:00;20.40;99.90
39103;DHT22;24847;48.218;16.414;2022-08-03T03:44:03;20.40;99.90
39103;DHT22;24847;48.218;16.414;2022-08-03T03:49:07;20.20;99.90
39103;DHT22;24847;48.218;16.414;2022-08-03T03:54:09;19.90;99.90
39103;DHT22;24847;48.218;16.414;2022-08-03T03:59:12;20.00;99.90
39103;DHT22;24847;48.218;16.414;2022-08-03T04:04:15;19.80;99.90
39103;DHT22;24847;48.218;16.414;2022-08-03T04:09:37;19.80;99.90
39103;DHT22;24847;48.218;16.414;2022-08-03T04:14:58;19.80;99.90
39103;DHT22;24847;48.218;16.414;2022-08-03T04:20:04;20.20;99.90
39103;DHT22;24847;48.218;16.414;2022-08-03T04:25:09;20.40;99.90
39103;DHT22;24847;48.218;16.414;2022-08-03T04:30:13;20.20;99.90
39103;DHT22;24847;48.218;16.414;2022-08-03T04:35:17;20.30;99.90
39103;DHT22;24847;48.218;16.414;2022-08-03T04:40:24;20.50;99.90
39103;DHT22;24847;48.218;16.414;2022-08-03T04:45:29;20.60;99.90
39103;DHT22;24847;48.218;16.414;2022-08-03T04:50:33;21.10;99.90
39103;DHT22;24847;48.218;16.414;2022-08-03T04:55:36;21.10;99.90
39103;DHT22;24847;48.218;16.414;2022-08-03T05:00:38;21.50;99.90
39103;DHT22;24847;48.218;16.414;2022-08-03T05:05:43;21.80;99.90
39103;DHT22;24847;48.218;16.414;2022-08-03T05:10:45;22.00;99.90
39103;DHT22;24847;48.218;16.414;2022-08-03T05:15:48;21.70;99.90
39103;DHT22;24847;48.218;16.414;2022-08-03T05:20:51;21.50;99.90
39103;DHT22;24847;48.218;16.414;2022-08-03T05:25:54;21.40;99.90
39103;DHT22;24847;48.218;16.414;2022-08-03T05:30:56;21.80;99.90
39103;DHT22;24847;48.218;16.414;2022-08-03T05:36:00;22.10;99.90
39103;DHT22;24847;48.218;16.414;2022-08-03T05:41:02;21.70;99.90
39103;DHT22;24847;48.218;16.414;2022-08-03T05:46:05;21.40;99.90
39103;DHT22;24847;48.218;16.414;2022-08-03T05:51:09;21.60;99.90
39103;DHT22;24847;48.218;16.414;2022-08-03T05:56:11;21.60;99.90
39103;DHT22;24847;48.218;16.414;2022-08-03T06:01:14;22.60;99.90
39103;DHT22;24847;48.218;16.414;2022-08-03T06:06:18;23.20;99.90
39103;DHT22;24847;48.218;16.414;2022-08-03T06:11:21;24.20;99.90
39103;DHT22;24847;48.218;16.414;2022-08-03T06:16:24;24.70;99.40
39103;DHT22;24847;48.218;16.414;2022-08-03T06:21:28;24.80;99.40
39103;DHT22;24847;48.218;16.414;2022-08-03T06:26:31;25.60;98.40
39103;DHT22;24847;48.218;16.414;2022-08-03T06:31:33;26.20;96.70
39103;DHT22;24847;48.218;16.414;2022-08-03T06:36:37;26.50;96.20
39103;DHT22;24847;48.218;16.414;2022-08-03T06:41:40;27.30;95.00
39103;DHT22;24847;48.218;16.414;2022-08-03T06:46:42;27.40;93.40
39103;DHT22;24847;48.218;16.414;2022-08-03T06:51:45;28.10;92.90
39103;DHT22;24847;48.218;16.414;2022-08-03T06:56:51;29.00;92.00
39103;DHT22;24847;48.218;16.414;2022-08-03T07:01:53;28.60;92.80
39103;DHT22;24847;48.218;16.414;2022-08-03T07:06:56;30.20;90.50
39103;DHT22;24847;48.218;16.414;2022-08-03T07:11:59;30.90;90.10
39103;DHT22;24847;48.218;16.414;2022-08-03T07:17:02;31.20;89.90
39103;DHT22;24847;48.218;16.414;2022-08-03T07:22:05;30.90;88.20
39103;DHT22;24847;48.218;16.414;2022-08-03T07:27:08;30.90;87.60
39103;DHT22;24847;48.218;16.414;2022-08-03T07:32:11;31.30;87.90
39103;DHT22;24847;48.218;16.414;2022-08-03T07:37:14;31.90;83.20
39103;DHT22;24847;48.218;16.414;2022-08-03T07:42:17;31.50;85.30
39103;DHT22;24847;48.218;16.414;2022-08-03T07:47:22;32.40;84.40
39103;DHT22;24847;48.218;16.414;2022-08-03T07:52:27;32.10;83.90
39103;DHT22;24847;48.218;16.414;2022-08-03T07:57:47;32.40;83.20
39103;DHT22;24847;48.218;16.414;2022-08-03T08:02:49;31.90;84.10
39103;DHT22;24847;48.218;16.414;2022-08-03T08:07:52;32.10;81.90
39103;DHT22;24847;48.218;16.414;2022-08-03T08:12:55;33.20;80.90
39103;DHT22;24847;48.218;16.414;2022-08-03T08:17:59;32.80;79.40
39103;DHT22;24847;48.218;16.414;2022-08-03T08:23:06;32.10;81.90
39103;DHT22;24847;48.218;16.414;2022-08-03T08:28:09;33.20;78.40
39103;DHT22;24847;48.218;16.414;2022-08-03T08:33:11;32.80;77.60
39103;DHT22;24847;48.218;16.414;2022-08-03T08:38:16;32.40;77.70
39103;DHT22;24847;48.218;16.414;2022-08-03T08:43:18;31.90;77.70
39103;DHT22;24847;48.218;16.414;2022-08-03T08:48:24;32.40;75.30
39103;DHT22;24847;48.218;16.414;2022-08-03T08:53:28;32.40;73.80
39103;DHT22;24847;48.218;16.414;2022-08-03T08:58:36;32.30;75.00
39103;DHT22;24847;48.218;16.414;2022-08-03T09:03:39;31.70;72.30
39103;DHT22;24847;48.218;16.414;2022-08-03T09:08:43;32.00;71.70
39103;DHT22;24847;48.218;16.414;2022-08-03T09:13:45;32.30;73.40
39103;DHT22;24847;48.218;16.414;2022-08-03T09:18:49;32.30;72.80
39103;DHT22;24847;48.218;16.414;2022-08-03T09:23:55;31.90;74.00
39103;DHT22;24847;48.218;16.414;2022-08-03T09:29:00;31.90;74.30
39103;DHT22;24847;48.218;16.414;2022-08-03T09:34:05;32.80;73.90
39103;DHT22;24847;48.218;16.414;2022-08-03T09:39:11;31.80;73.80
39103;DHT22;24847;48.218;16.414;2022-08-03T09:44:14;32.30;72.70
39103;DHT22;24847;48.218;16.414;2022-08-03T09:49:17;32.50;69.90
39103;DHT22;24847;48.218;16.414;2022-08-03T09:54:27;32.90;71.20
39103;DHT22;24847;48.218;16.414;2022-08-03T09:59:30;33.00;69.90
39103;DHT22;24847;48.218;16.414;2022-08-03T10:04:33;33.70;67.80
39103;DHT22;24847;48.218;16.414;2022-08-03T10:10:00;33.30;64.80
39103;DHT22;24847;48.218;16.414;2022-08-03T10:15:03;33.90;63.10
39103;DHT22;24847;48.218;16.414;2022-08-03T10:20:08;33.90;64.90
39103;DHT22;24847;48.218;16.414;2022-08-03T10:25:14;34.40;62.50
39103;DHT22;24847;48.218;16.414;2022-08-03T10:30:17;34.50;61.80
39103;DHT22;24847;48.218;16.414;2022-08-03T10:35:20;34.50;61.30
39103;DHT22;24847;48.218;16.414;2022-08-03T10:40:26;34.50;60.90
39103;DHT22;24847;48.218;16.414;2022-08-03T10:45:30;34.60;60.60
39103;DHT22;24847;48.218;16.414;2022-08-03T10:50:35;34.00;57.90
39103;DHT22;24847;48.218;16.414;2022-08-03T10:55:41;33.20;57.50
39103;DHT22;24847;48.218;16.414;2022-08-03T11:01:03;33.90;56.80
39103;DHT22;24847;48.218;16.414;2022-08-03T11:06:14;32.90;60.70
39103;DHT22;24847;48.218;16.414;2022-08-03T11:11:25;33.40;59.30
39103;DHT22;24847;48.218;16.414;2022-08-03T11:16:30;33.60;59.70
39103;DHT22;24847;48.218;16.414;2022-08-03T11:21:52;33.50;59.40
39103;DHT22;24847;48.218;16.414;2022-08-03T11:27:16;33.80;59.80
39103;DHT22;24847;48.218;16.414;2022-08-03T11:32:52;33.90;60.30
39103;DHT22;24847;48.218;16.414;2022-08-03T11:38:09;32.00;63.90
39103;DHT22;24847;48.218;16.414;2022-08-03T11:43:44;31.80;64.50
39103;DHT22;24847;48.218;16.414;2022-08-03T11:48:49;32.20;64.60
39103;DHT22;24847;48.218;16.414;2022-08-03T11:53:53;32.70;63.00
39103;DHT22;24847;48.218;16.414;2022-08-03T11:58:57;32.20;62.20
39103;DHT22;24847;48.218;16.414;2022-08-03T12:04:02;32.20;61.20
39103;DHT22;24847;48.218;16.414;2022-08-03T12:09:14;32.80;59.90
39103;DHT22;24847;48.218;16.414;2022-08-03T12:14:18;32.70;59.60
39103;DHT22;24847;48.218;16.414;2022-08-03T12:19:21;32.20;59.90
39103;DHT22;24847;48.218;16.414;2022-08-03T12:24:23;32.10;60.90
39103;DHT22;24847;48.218;16.414;2022-08-03T12:29:29;31.70;61.20
39103;DHT22;24847;48.218;16.414;2022-08-03T12:34:47;31.40;60.30
39103;DHT22;24847;48.218;16.414;2022-08-03T12:39:51;31.20;60.40
39103;DHT22;24847;48.218;16.414;2022-08-03T12:44:55;30.80;61.80
39103;DHT22;24847;48.218;16.414;2022-08-03T12:49:58;30.80;59.90
39103;DHT22;24847;48.218;16.414;2022-08-03T12:55:00;30.90;60.50
39103;DHT22;24847;48.218;16.414;2022-08-03T13:00:11;31.00;60.50
39103;DHT22;24847;48.218;16.414;2022-08-03T13:05:15;30.70;62.50
39103;DHT22;24847;48.218;16.414;2022-08-03T13:10:27;30.80;60.40
39103;DHT22;24847;48.218;16.414;2022-08-03T13:15:31;30.60;61.20
39103;DHT22;24847;48.218;16.414;2022-08-03T13:20:34;30.90;61.00
39103;DHT22;24847;48.218;16.414;2022-08-03T13:25:36;31.00;60.10
39103;DHT22;24847;48.218;16.414;2022-08-03T13:30:39;30.90;61.70
39103;DHT22;24847;48.218;16.414;2022-08-03T13:35:42;30.50;61.20
39103;DHT22;24847;48.218;16.414;2022-08-03T13:40:44;30.60;60.10
39103;DHT22;24847;48.218;16.414;2022-08-03T13:45:47;30.50;59.70
39103;DHT22;24847;48.218;16.414;2022-08-03T13:50:49;30.90;59.70
39103;DHT22;24847;48.218;16.414;2022-08-03T13:55:52;31.00;59.80
39103;DHT22;24847;48.218;16.414;2022-08-03T14:00:55;31.10;59.70
39103;DHT22;24847;48.218;16.414;2022-08-03T14:05:57;31.00;60.10
39103;DHT22;24847;48.218;16.414;2022-08-03T14:10:59;30.80;59.30
39103;DHT22;24847;48.218;16.414;2022-08-03T14:16:04;30.80;59.10
39103;DHT22;24847;48.218;16.414;2022-08-03T14:21:06;30.80;60.80
39103;DHT22;24847;48.218;16.414;2022-08-03T14:26:09;30.90;59.80
39103;DHT22;24847;48.218;16.414;2022-08-03T14:31:13;31.00;58.90
39103;DHT22;24847;48.218;16.414;2022-08-03T14:36:15;31.00;58.60
39103;DHT22;24847;48.218;16.414;2022-08-03T14:41:18;30.80;58.00
39103;DHT22;24847;48.218;16.414;2022-08-03T14:46:21;30.40;59.90
39103;DHT22;24847;48.218;16.414;2022-08-03T14:51:24;30.60;59.30
39103;DHT22;24847;48.218;16.414;2022-08-03T14:56:26;30.60;58.70
39103;DHT22;24847;48.218;16.414;2022-08-03T15:01:29;30.40;58.00
39103;DHT22;24847;48.218;16.414;2022-08-03T15:06:32;30.60;61.40
39103;DHT22;24847;48.218;16.414;2022-08-03T15:11:34;30.50;62.80
39103;DHT22;24847;48.218;16.414;2022-08-03T15:16:38;30.60;59.80
39103;DHT22;24847;48.218;16.414;2022-08-03T15:21:40;30.80;60.50
39103;DHT22;24847;48.218;16.414;2022-08-03T15:26:43;31.00;59.20
39103;DHT22;24847;48.218;16.414;2022-08-03T15:31:47;30.90;59.20
39103;DHT22;24847;48.218;16.414;2022-08-03T15:36:49;31.20;58.90
39103;DHT22;24847;48.218;16.414;2022-08-03T15:41:51;30.90;59.00
39103;DHT22;24847;48.218;16.414;2022-08-03T15:46:55;30.50;58.50
39103;DHT22;24847;48.218;16.414;2022-08-03T15:51:57;30.60;57.80
39103;DHT22;24847;48.218;16.414;2022-08-03T15:57:00;30.80;57.90
39103;DHT22;24847;48.218;16.414;2022-08-03T16:02:04;30.50;59.60
39103;DHT22;24847;48.218;16.414;2022-08-03T16:07:06;30.20;60.10
39103;DHT22;24847;48.218;16.414;2022-08-03T16:12:09;30.30;61.00
39103;DHT22;24847;48.218;16.414;2022-08-03T16:17:12;30.40;61.50
39103;DHT22;24847;48.218;16.414;2022-08-03T16:22:14;30.60;60.50
39103;DHT22;24847;48.218;16.414;2022-08-03T16:27:17;30.10;61.30
39103;DHT22;24847;48.218;16.414;2022-08-03T16:32:21;30.30;63.10
39103;DHT22;24847;48.218;16.414;2022-08-03T16:37:23;30.30;61.70
39103;DHT22;24847;48.218;16.414;2022-08-03T16:42:25;30.60;60.50
39103;DHT22;24847;48.218;16.414;2022-08-03T16:47:29;30.50;61.80
39103;DHT22;24847;48.218;16.414;2022-08-03T16:52:32;30.20;61.60
39103;DHT22;24847;48.218;16.414;2022-08-03T16:57:34;30.30;60.90
39103;DHT22;24847;48.218;16.414;2022-08-03T17:02:40;30.00;63.00
39103;DHT22;24847;48.218;16.414;2022-08-03T17:07:44;29.80;64.40
39103;DHT22;24847;48.218;16.414;2022-08-03T17:12:47;29.50;65.50
39103;DHT22;24847;48.218;16.414;2022-08-03T17:17:57;29.50;65.40
39103;DHT22;24847;48.218;16.414;2022-08-03T17:28:39;29.40;64.90
39103;DHT22;24847;48.218;16.414;2022-08-03T17:33:45;29.20;67.60
39103;DHT22;24847;48.218;16.414;2022-08-03T17:38:50;29.40;65.80
39103;DHT22;24847;48.218;16.414;2022-08-03T17:43:54;29.30;66.80
39103;DHT22;24847;48.218;16.414;2022-08-03T17:48:58;29.40;65.70
39103;DHT22;24847;48.218;16.414;2022-08-03T17:54:15;29.60;66.50
39103;DHT22;24847;48.218;16.414;2022-08-03T17:59:24;29.40;65.50
39103;DHT22;24847;48.218;16.414;2022-08-03T18:04:32;29.20;65.70
39103;DHT22;24847;48.218;16.414;2022-08-03T18:09:44;29.00;65.10
39103;DHT22;24847;48.218;16.414;2022-08-03T18:14:54;29.10;67.80
39103;DHT22;24847;48.218;16.414;2022-08-03T18:19:59;29.10;66.30
39103;DHT22;24847;48.218;16.414;2022-08-03T18:25:03;29.10;67.60
39103;DHT22;24847;48.218;16.414;2022-08-03T18:30:07;28.90;67.40
39103;DHT22;24847;48.218;16.414;2022-08-03T18:35:11;28.60;69.30
39103;DHT22;24847;48.218;16.414;2022-08-03T18:40:14;28.90;70.60
39103;DHT22;24847;48.218;16.414;2022-08-03T18:45:17;28.90;68.40
39103;DHT22;24847;48.218;16.414;2022-08-03T18:50:27;28.20;70.40
39103;DHT22;24847;48.218;16.414;2022-08-03T18:55:31;28.20;72.50
39103;DHT22;24847;48.218;16.414;2022-08-03T19:00:39;27.70;76.80
39103;DHT22;24847;48.218;16.414;2022-08-03T19:05:49;27.60;77.80
39103;DHT22;24847;48.218;16.414;2022-08-03T19:11:01;27.70;77.50
39103;DHT22;24847;48.218;16.414;2022-08-03T19:16:08;27.70;76.50
39103;DHT22;24847;48.218;16.414;2022-08-03T19:21:14;27.80;74.90
39103;DHT22;24847;48.218;16.414;2022-08-03T19:26:17;27.60;74.70
39103;DHT22;24847;48.218;16.414;2022-08-03T19:31:19;27.50;74.50
39103;DHT22;24847;48.218;16.414;2022-08-03T19:36:24;27.30;74.00
39103;DHT22;24847;48.218;16.414;2022-08-03T19:41:34;27.00;78.10
39103;DHT22;24847;48.218;16.414;2022-08-03T19:46:45;27.30;76.50
39103;DHT22;24847;48.218;16.414;2022-08-03T19:51:51;27.10;77.50
39103;DHT22;24847;48.218;16.414;2022-08-03T19:56:55;27.30;77.30
39103;DHT22;24847;48.218;16.414;2022-08-03T20:01:57;26.80;87.40
39103;DHT22;24847;48.218;16.414;2022-08-03T20:07:02;26.30;90.00
39103;DHT22;24847;48.218;16.414;2022-08-03T20:12:07;26.50;88.00
39103;DHT22;24847;48.218;16.414;2022-08-03T20:17:09;26.70;84.20
39103;DHT22;24847;48.218;16.414;2022-08-03T20:22:13;26.60;81.60
39103;DHT22;24847;48.218;16.414;2022-08-03T20:27:17;26.70;80.60
39103;DHT22;24847;48.218;16.414;2022-08-03T20:32:21;26.40;81.90
39103;DHT22;24847;48.218;16.414;2022-08-03T20:37:24;25.90;84.30
39103;DHT22;24847;48.218;16.414;2022-08-03T20:42:27;25.80;86.00
39103;DHT22;24847;48.218;16.414;2022-08-03T20:47:29;25.90;86.50
39103;DHT22;24847;48.218;16.414;2022-08-03T20:52:33;26.00;84.30
39103;DHT22;24847;48.218;16.414;2022-08-03T20:57:37;25.60;85.50
39103;DHT22;24847;48.218;16.414;2022-08-03T21:02:39;25.90;84.50
39103;DHT22;24847;48.218;16.414;2022-08-03T21:07:46;25.70;85.50
39103;DHT22;24847;48.218;16.414;2022-08-03T21:12:53;25.60;86.10
39103;DHT22;24847;48.218;16.414;2022-08-03T21:17:59;25.70;85.60
39103;DHT22;24847;48.218;16.414;2022-08-03T21:23:05;25.30;86.00
39103;DHT22;24847;48.218;16.414;2022-08-03T21:28:11;25.30;91.00
39103;DHT22;24847;48.218;16.414;2022-08-03T21:33:14;25.60;88.20
39103;DHT22;24847;48.218;16.414;2022-08-03T21:38:18;25.70;85.50
39103;DHT22;24847;48.218;16.414;2022-08-03T21:43:21;24.90;91.30
39103;DHT22;24847;48.218;16.414;2022-08-03T21:48:25;24.80;94.20
39103;DHT22;24847;48.218;16.414;2022-08-03T21:53:30;24.50;93.80
39103;DHT22;24847;48.218;16.414;2022-08-03T21:58:39;24.40;94.00
39103;DHT22;24847;48.218;16.414;2022-08-03T22:03:47;24.30;96.00
39103;DHT22;24847;48.218;16.414;2022-08-03T22:08:52;24.40;96.90
39103;DHT22;24847;48.218;16.414;2022-08-03T22:13:54;24.60;96.00
39103;DHT22;24847;48.218;16.414;2022-08-03T22:18:56;24.70;94.50
39103;DHT22;24847;48.218;16.414;2022-08-03T22:24:00;24.50;93.50
39103;DHT22;24847;48.218;16.414;2022-08-03T22:29:06;24.10;93.20
39103;DHT22;24847;48.218;16.414;2022-08-03T22:34:08;24.60;93.30
39103;DHT22;24847;48.218;16.414;2022-08-03T22:39:12;24.50;93.00
39103;DHT22;24847;48.218;16.414;2022-08-03T22:44:14;23.70;93.90
39103;DHT22;24847;48.218;16.414;2022-08-03T22:49:17;23.80;94.60
39103;DHT22;24847;48.218;16.414;2022-08-03T22:54:22;23.70;94.50
39103;DHT22;24847;48.218;16.414;2022-08-03T22:59:24;23.70;94.60
39103;DHT22;24847;48.218;16.414;2022-08-03T23:04:28;23.70;94.10
39103;DHT22;24847;48.218;16.414;2022-08-03T23:09:33;23.40;94.10
39103;DHT22;24847;48.218;16.414;2022-08-03T23:14:37;23.20;95.30
39103;DHT22;24847;48.218;16.414;2022-08-03T23:19:41;23.20;96.60
39103;DHT22;24847;48.218;16.414;2022-08-03T23:24:45;23.10;96.90
39103;DHT22;24847;48.218;16.414;2022-08-03T23:29:49;23.10;96.80
39103;DHT22;24847;48.218;16.414;2022-08-03T23:34:54;23.00;97.80
39103;DHT22;24847;48.218;16.414;2022-08-03T23:40:22;23.50;98.20
39103;DHT22;24847;48.218;16.414;2022-08-03T23:45:26;23.50;98.60
39103;DHT22;24847;48.218;16.414;2022-08-03T23:50:42;23.00;99.90
39103;DHT22;24847;48.218;16.414;2022-08-03T23:55:55;23.10;99.90
